sensor_id;sensor_type;location;lat;lon;timestamp;pressure;altitude;pressure_sealevel;temperature;humidity
79453;BME280;68899;52.116;5.404;2024-01-15T00:01:36;100373.16;;;1.64;88.76
79453;BME280;68899;52.116;5.404;2024-01-15T00:04:03;100380.16;;;1.62;88.54
79453;BME280;68899;52.116;5.404;2024-01-15T00:06:30;100375.94;;;1.59;88.70
79453;BME280;68899;52.116;5.404;2024-01-15T00:08:59;100370.75;;;1.59;88.00
79453;BME280;68899;52.116;5.404;2024-01-15T00:11:25;100365.63;;;1.58;88.04
79453;BME280;68899;52.116;5.404;2024-01-15T00:13:52;100361.34;;;1.57;87.83
79453;BME280;68899;52.116;5.404;2024-01-15T00:16:18;100363.94;;;1.55;87.75
79453;BME280;68899;52.116;5.404;2024-01-15T00:18:45;100353.69;;;1.52;88.45
79453;BME280;68899;52.116;5.404;2024-01-15T00:21:11;100360.63;;;1.52;87.58
79453;BME280;68899;52.116;5.404;2024-01-15T00:23:42;100356.34;;;1.51;88.46
79453;BME280;68899;52.116;5.404;2024-01-15T00:26:09;100354.66;;;1.50;88.11
79453;BME280;68899;52.116;5.404;2024-01-15T00:28:37;100353.81;;;1.48;88.05
79453;BME280;68899;52.116;5.404;2024-01-15T00:31:05;100344.34;;;1.47;87.95
79453;BME280;68899;52.116;5.404;2024-01-15T00:33:31;100340.00;;;1.47;87.75
79453;BME280;68899;52.116;5.404;2024-01-15T00:35:58;100340.97;;;1.45;87.48
79453;BME280;68899;52.116;5.404;2024-01-15T00:38:24;100337.53;;;1.44;87.92
79453;BME280;68899;52.116;5.404;2024-01-15T00:40:51;100328.97;;;1.42;87.41
79453;BME280;68899;52.116;5.404;2024-01-15T00:43:17;100326.44;;;1.39;87.25
79453;BME280;68899;52.116;5.404;2024-01-15T00:45:47;100326.50;;;1.37;87.69
79453;BME280;68899;52.116;5.404;2024-01-15T00:48:13;100328.25;;;1.37;87.43
79453;BME280;68899;52.116;5.404;2024-01-15T00:50:40;100312.81;;;1.34;86.85
79453;BME280;68899;52.116;5.404;2024-01-15T00:53:06;100312.91;;;1.31;86.75
79453;BME280;68899;52.116;5.404;2024-01-15T00:55:33;100312.16;;;1.27;86.61
79453;BME280;68899;52.116;5.404;2024-01-15T00:58:00;100314.91;;;1.23;86.58
79453;BME280;68899;52.116;5.404;2024-01-15T01:00:26;100309.72;;;1.23;87.51
79453;BME280;68899;52.116;5.404;2024-01-15T01:02:53;100312.34;;;1.21;87.24
79453;BME280;68899;52.116;5.404;2024-01-15T01:05:20;100310.66;;;1.20;87.20
79453;BME280;68899;52.116;5.404;2024-01-15T01:07:46;100308.91;;;1.21;87.03
79453;BME280;68899;52.116;5.404;2024-01-15T01:10:13;100305.53;;;1.19;87.55
79453;BME280;68899;52.116;5.404;2024-01-15T01:12:39;100302.09;;;1.18;87.24
79453;BME280;68899;52.116;5.404;2024-01-15T01:15:06;100302.09;;;1.18;87.20
79453;BME280;68899;52.116;5.404;2024-01-15T01:17:32;100302.13;;;1.17;86.89
79453;BME280;68899;52.116;5.404;2024-01-15T01:19:59;100301.41;;;1.13;87.19
79453;BME280;68899;52.116;5.404;2024-01-15T01:22:26;100288.53;;;1.10;86.91
79453;BME280;68899;52.116;5.404;2024-01-15T01:24:53;100293.69;;;1.10;86.51
79453;BME280;68899;52.116;5.404;2024-01-15T01:27:19;100292.91;;;1.08;86.90
79453;BME280;68899;52.116;5.404;2024-01-15T01:29:46;100294.53;;;1.10;86.97
79453;BME280;68899;52.116;5.404;2024-01-15T01:32:12;100299.69;;;1.12;86.87
79453;BME280;68899;52.116;5.404;2024-01-15T01:34:42;100297.91;;;1.14;87.70
79453;BME280;68899;52.116;5.404;2024-01-15T01:37:11;100303.09;;;1.14;87.26
79453;BME280;68899;52.116;5.404;2024-01-15T01:39:42;100305.63;;;1.16;86.64
79453;BME280;68899;52.116;5.404;2024-01-15T01:42:10;100305.69;;;1.14;86.80
79453;BME280;68899;52.116;5.404;2024-01-15T01:44:37;100299.53;;;1.17;87.22
79453;BME280;68899;52.116;5.404;2024-01-15T01:47:05;100296.91;;;1.18;87.14
79453;BME280;68899;52.116;5.404;2024-01-15T01:49:31;100293.47;;;1.18;87.25
79453;BME280;68899;52.116;5.404;2024-01-15T01:52:00;100294.31;;;1.18;87.29
79453;BME280;68899;52.116;5.404;2024-01-15T01:54:29;100290.88;;;1.18;87.02
79453;BME280;68899;52.116;5.404;2024-01-15T01:56:58;100300.38;;;1.17;87.17
79453;BME280;68899;52.116;5.404;2024-01-15T01:59:26;100292.63;;;1.17;87.70
79453;BME280;68899;52.116;5.404;2024-01-15T02:01:57;100293.47;;;1.18;87.73
79453;BME280;68899;52.116;5.404;2024-01-15T02:04:24;100299.50;;;1.18;86.92
79453;BME280;68899;52.116;5.404;2024-01-15T02:06:51;100295.94;;;1.21;86.95
79453;BME280;68899;52.116;5.404;2024-01-15T02:09:18;100303.66;;;1.24;87.31
79453;BME280;68899;52.116;5.404;2024-01-15T02:11:47;100310.47;;;1.26;86.78
79453;BME280;68899;52.116;5.404;2024-01-15T02:14:14;100315.50;;;1.31;86.94
79453;BME280;68899;52.116;5.404;2024-01-15T02:16:41;100324.97;;;1.32;87.32
79453;BME280;68899;52.116;5.404;2024-01-15T02:19:14;100317.94;;;1.35;87.68
79453;BME280;68899;52.116;5.404;2024-01-15T02:21:41;100325.59;;;1.40;87.36
79453;BME280;68899;52.116;5.404;2024-01-15T02:24:08;100318.53;;;1.44;88.21
79453;BME280;68899;52.116;5.404;2024-01-15T02:26:35;100313.31;;;1.45;87.96
79453;BME280;68899;52.116;5.404;2024-01-15T02:29:03;100307.28;;;1.45;88.05
79453;BME280;68899;52.116;5.404;2024-01-15T02:31:30;100310.75;;;1.44;88.13
79453;BME280;68899;52.116;5.404;2024-01-15T02:33:57;100307.31;;;1.43;88.24
79453;BME280;68899;52.116;5.404;2024-01-15T02:36:24;100308.22;;;1.42;87.97
79453;BME280;68899;52.116;5.404;2024-01-15T02:38:50;100305.69;;;1.40;87.68
79453;BME280;68899;52.116;5.404;2024-01-15T02:41:16;100304.88;;;1.38;88.42
79453;BME280;68899;52.116;5.404;2024-01-15T02:43:43;100305.72;;;1.39;87.73
79453;BME280;68899;52.116;5.404;2024-01-15T02:46:10;100303.13;;;1.39;88.01
79453;BME280;68899;52.116;5.404;2024-01-15T02:48:36;100292.75;;;1.39;87.93
79453;BME280;68899;52.116;5.404;2024-01-15T02:51:03;100292.75;;;1.39;88.40
79453;BME280;68899;52.116;5.404;2024-01-15T02:53:30;100286.72;;;1.38;88.40
79453;BME280;68899;52.116;5.404;2024-01-15T02:55:56;100293.63;;;1.39;88.51
79453;BME280;68899;52.116;5.404;2024-01-15T02:58:23;100297.06;;;1.40;88.13
79453;BME280;68899;52.116;5.404;2024-01-15T03:00:50;100292.75;;;1.39;88.28
79453;BME280;68899;52.116;5.404;2024-01-15T03:03:16;100297.06;;;1.40;88.83
79453;BME280;68899;52.116;5.404;2024-01-15T03:05:43;100296.25;;;1.38;88.56
79453;BME280;68899;52.116;5.404;2024-01-15T03:08:09;100287.69;;;1.36;88.57
79453;BME280;68899;52.116;5.404;2024-01-15T03:10:36;100293.78;;;1.35;88.50
79453;BME280;68899;52.116;5.404;2024-01-15T03:13:02;100291.28;;;1.32;89.10
79453;BME280;68899;52.116;5.404;2024-01-15T03:15:29;100282.75;;;1.28;88.06
79453;BME280;68899;52.116;5.404;2024-01-15T03:17:55;100283.66;;;1.27;88.86
79453;BME280;68899;52.116;5.404;2024-01-15T03:20:22;100285.44;;;1.25;88.33
79453;BME280;68899;52.116;5.404;2024-01-15T03:22:49;100290.69;;;1.24;88.96
79453;BME280;68899;52.116;5.404;2024-01-15T03:25:15;100289.91;;;1.22;88.59
79453;BME280;68899;52.116;5.404;2024-01-15T03:27:42;100283.84;;;1.21;88.74
79453;BME280;68899;52.116;5.404;2024-01-15T03:30:09;100283.91;;;1.20;88.23
79453;BME280;68899;52.116;5.404;2024-01-15T03:32:36;100283.94;;;1.18;88.28
79453;BME280;68899;52.116;5.404;2024-01-15T03:35:02;100281.31;;;1.20;88.63
79453;BME280;68899;52.116;5.404;2024-01-15T03:37:29;100281.22;;;1.23;88.80
79453;BME280;68899;52.116;5.404;2024-01-15T03:39:56;100284.59;;;1.25;89.21
79453;BME280;68899;52.116;5.404;2024-01-15T03:42:23;100289.69;;;1.28;89.35
79453;BME280;68899;52.116;5.404;2024-01-15T03:44:50;100295.63;;;1.31;88.57
79453;BME280;68899;52.116;5.404;2024-01-15T03:47:16;100302.34;;;1.37;88.26
79453;BME280;68899;52.116;5.404;2024-01-15T03:49:42;100309.38;;;1.33;88.86
79453;BME280;68899;52.116;5.404;2024-01-15T03:52:09;100298.16;;;1.33;88.11
79453;BME280;68899;52.116;5.404;2024-01-15T03:54:36;100294.81;;;1.29;88.11
79453;BME280;68899;52.116;5.404;2024-01-15T03:57:02;100281.84;;;1.29;88.50
79453;BME280;68899;52.116;5.404;2024-01-15T03:59:29;100274.97;;;1.28;88.46
79453;BME280;68899;52.116;5.404;2024-01-15T04:01:55;100255.94;;;1.29;88.97
79453;BME280;68899;52.116;5.404;2024-01-15T04:04:22;100254.31;;;1.27;88.13
79453;BME280;68899;52.116;5.404;2024-01-15T04:06:49;100267.44;;;1.22;88.19
79453;BME280;68899;52.116;5.404;2024-01-15T04:09:15;100257.19;;;1.18;88.19
79453;BME280;68899;52.116;5.404;2024-01-15T04:11:42;100253.75;;;1.17;87.86
79453;BME280;68899;52.116;5.404;2024-01-15T04:14:08;100244.31;;;1.16;88.47
79453;BME280;68899;52.116;5.404;2024-01-15T04:16:35;100241.59;;;1.19;88.66
79453;BME280;68899;52.116;5.404;2024-01-15T04:19:03;100236.41;;;1.19;87.99
79453;BME280;68899;52.116;5.404;2024-01-15T04:21:30;100245.09;;;1.18;88.80
79453;BME280;68899;52.116;5.404;2024-01-15T04:23:56;100242.50;;;1.18;88.63
79453;BME280;68899;52.116;5.404;2024-01-15T04:26:23;100237.38;;;1.17;88.61
79453;BME280;68899;52.116;5.404;2024-01-15T04:28:49;100238.28;;;1.16;87.72
79453;BME280;68899;52.116;5.404;2024-01-15T04:31:25;100237.44;;;1.15;87.84
79453;BME280;68899;52.116;5.404;2024-01-15T04:33:53;100234.03;;;1.13;88.09
79453;BME280;68899;52.116;5.404;2024-01-15T04:36:20;100232.31;;;1.13;87.90
79453;BME280;68899;52.116;5.404;2024-01-15T04:38:47;100234.84;;;1.15;88.54
79453;BME280;68899;52.116;5.404;2024-01-15T04:41:14;100227.06;;;1.15;88.04
79453;BME280;68899;52.116;5.404;2024-01-15T04:43:42;100223.69;;;1.13;87.82
79453;BME280;68899;52.116;5.404;2024-01-15T04:46:08;100217.63;;;1.12;87.91
79453;BME280;68899;52.116;5.404;2024-01-15T04:48:36;100209.84;;;1.12;87.96
79453;BME280;68899;52.116;5.404;2024-01-15T04:51:08;100211.66;;;1.10;88.25
79453;BME280;68899;52.116;5.404;2024-01-15T04:53:35;100209.06;;;1.10;88.37
79453;BME280;68899;52.116;5.404;2024-01-15T04:56:02;100211.72;;;1.09;88.21
79453;BME280;68899;52.116;5.404;2024-01-15T04:58:28;100219.47;;;1.09;88.02
79453;BME280;68899;52.116;5.404;2024-01-15T05:00:55;100219.47;;;1.09;88.83
79453;BME280;68899;52.116;5.404;2024-01-15T05:03:22;100216.94;;;1.07;88.85
79453;BME280;68899;52.116;5.404;2024-01-15T05:05:49;100216.94;;;1.07;88.47
79453;BME280;68899;52.116;5.404;2024-01-15T05:08:15;100217.75;;;1.09;88.90
79453;BME280;68899;52.116;5.404;2024-01-15T05:10:42;100216.00;;;1.10;88.95
79453;BME280;68899;52.116;5.404;2024-01-15T05:13:08;100215.16;;;1.09;88.88
79453;BME280;68899;52.116;5.404;2024-01-15T05:15:35;100214.25;;;1.10;88.61
79453;BME280;68899;52.116;5.404;2024-01-15T05:18:02;100216.00;;;1.10;89.06
79453;BME280;68899;52.116;5.404;2024-01-15T05:20:28;100206.53;;;1.09;89.17
79453;BME280;68899;52.116;5.404;2024-01-15T05:22:55;100209.13;;;1.09;88.39
79453;BME280;68899;52.116;5.404;2024-01-15T05:25:21;100197.06;;;1.08;89.40
79453;BME280;68899;52.116;5.404;2024-01-15T05:27:48;100200.56;;;1.07;89.14
79453;BME280;68899;52.116;5.404;2024-01-15T05:30:15;100198.94;;;1.04;88.92
79453;BME280;68899;52.116;5.404;2024-01-15T05:32:42;100199.72;;;1.06;89.18
79453;BME280;68899;52.116;5.404;2024-01-15T05:35:09;100201.47;;;1.06;89.26
79453;BME280;68899;52.116;5.404;2024-01-15T05:37:35;100203.16;;;1.07;89.00
79453;BME280;68899;52.116;5.404;2024-01-15T05:40:02;100203.22;;;1.05;89.89
79453;BME280;68899;52.116;5.404;2024-01-15T05:42:31;100215.25;;;1.06;89.97
79453;BME280;68899;52.116;5.404;2024-01-15T05:44:58;100218.69;;;1.07;89.34
79453;BME280;68899;52.116;5.404;2024-01-15T05:47:25;100209.97;;;1.09;89.82
79453;BME280;68899;52.116;5.404;2024-01-15T05:49:52;100213.41;;;1.10;90.17
79453;BME280;68899;52.116;5.404;2024-01-15T05:52:19;100210.81;;;1.10;89.58
79453;BME280;68899;52.116;5.404;2024-01-15T05:54:47;100209.84;;;1.12;89.42
79453;BME280;68899;52.116;5.404;2024-01-15T05:57:14;100210.72;;;1.13;89.53
79453;BME280;68899;52.116;5.404;2024-01-15T05:59:40;100215.00;;;1.14;89.17
79453;BME280;68899;52.116;5.404;2024-01-15T06:02:07;100217.59;;;1.14;89.74
79453;BME280;68899;52.116;5.404;2024-01-15T06:04:33;100219.22;;;1.17;89.75
79453;BME280;68899;52.116;5.404;2024-01-15T06:07:00;100213.09;;;1.19;89.82
79453;BME280;68899;52.116;5.404;2024-01-15T06:09:27;100213.88;;;1.21;89.49
79453;BME280;68899;52.116;5.404;2024-01-15T06:11:55;100227.59;;;1.25;89.28
79453;BME280;68899;52.116;5.404;2024-01-15T06:14:21;100228.56;;;1.22;89.73
79453;BME280;68899;52.116;5.404;2024-01-15T06:16:47;100216.53;;;1.20;89.35
79453;BME280;68899;52.116;5.404;2024-01-15T06:19:14;100213.16;;;1.18;89.54
79453;BME280;68899;52.116;5.404;2024-01-15T06:21:41;100215.84;;;1.15;89.80
79453;BME280;68899;52.116;5.404;2024-01-15T06:24:07;100211.53;;;1.15;89.07
79453;BME280;68899;52.116;5.404;2024-01-15T06:26:36;100207.25;;;1.14;89.08
79453;BME280;68899;52.116;5.404;2024-01-15T06:29:02;100202.06;;;1.14;89.30
79453;BME280;68899;52.116;5.404;2024-01-15T06:31:29;100203.81;;;1.13;89.57
79453;BME280;68899;52.116;5.404;2024-01-15T06:33:56;100207.25;;;1.12;89.16
79453;BME280;68899;52.116;5.404;2024-01-15T06:36:23;100209.91;;;1.11;89.14
79453;BME280;68899;52.116;5.404;2024-01-15T06:38:49;100205.56;;;1.11;88.96
79453;BME280;68899;52.116;5.404;2024-01-15T06:41:16;100204.78;;;1.09;89.17
79453;BME280;68899;52.116;5.404;2024-01-15T06:43:43;100203.09;;;1.08;89.56
79453;BME280;68899;52.116;5.404;2024-01-15T06:46:09;100193.63;;;1.07;89.20
79453;BME280;68899;52.116;5.404;2024-01-15T06:48:36;100200.50;;;1.08;88.97
79453;BME280;68899;52.116;5.404;2024-01-15T06:51:03;100197.91;;;1.08;89.13
79453;BME280;68899;52.116;5.404;2024-01-15T06:53:30;100190.19;;;1.07;89.42
79453;BME280;68899;52.116;5.404;2024-01-15T06:55:56;100195.44;;;1.05;89.22
79453;BME280;68899;52.116;5.404;2024-01-15T06:58:23;100190.25;;;1.05;89.17
79453;BME280;68899;52.116;5.404;2024-01-15T07:00:49;100188.50;;;1.06;89.19
79453;BME280;68899;52.116;5.404;2024-01-15T07:03:16;100193.75;;;1.04;89.14
79453;BME280;68899;52.116;5.404;2024-01-15T07:05:43;100179.91;;;1.04;88.97
79453;BME280;68899;52.116;5.404;2024-01-15T07:08:10;100182.50;;;1.05;89.35
79453;BME280;68899;52.116;5.404;2024-01-15T07:10:36;100176.53;;;1.02;88.71
79453;BME280;68899;52.116;5.404;2024-01-15T07:13:03;100179.19;;;1.00;89.03
79453;BME280;68899;52.116;5.404;2024-01-15T07:15:31;100177.44;;;1.01;89.03
79453;BME280;68899;52.116;5.404;2024-01-15T07:17:58;100192.03;;;1.03;89.56
79453;BME280;68899;52.116;5.404;2024-01-15T07:20:25;100217.13;;;1.01;89.10
79453;BME280;68899;52.116;5.404;2024-01-15T07:22:51;100225.81;;;1.00;89.15
79453;BME280;68899;52.116;5.404;2024-01-15T07:25:18;100230.16;;;1.00;89.45
79453;BME280;68899;52.116;5.404;2024-01-15T07:27:44;100218.22;;;0.94;88.81
79453;BME280;68899;52.116;5.404;2024-01-15T07:30:13;100199.38;;;0.91;89.38
79453;BME280;68899;52.116;5.404;2024-01-15T07:32:39;100205.28;;;0.94;88.72
79453;BME280;68899;52.116;5.404;2024-01-15T07:35:07;100201.91;;;0.92;89.50
79453;BME280;68899;52.116;5.404;2024-01-15T07:37:33;100200.16;;;0.93;89.48
79453;BME280;68899;52.116;5.404;2024-01-15T07:40:00;100207.91;;;0.93;89.27
79453;BME280;68899;52.116;5.404;2024-01-15T07:42:27;100192.50;;;0.90;89.66
79453;BME280;68899;52.116;5.404;2024-01-15T07:44:54;100195.88;;;0.92;88.97
79453;BME280;68899;52.116;5.404;2024-01-15T07:47:20;100193.28;;;0.92;89.31
79453;BME280;68899;52.116;5.404;2024-01-15T07:49:47;100203.53;;;0.95;89.51
79453;BME280;68899;52.116;5.404;2024-01-15T07:52:14;100220.78;;;0.96;89.90
79453;BME280;68899;52.116;5.404;2024-01-15T07:54:40;100225.91;;;0.97;89.30
79453;BME280;68899;52.116;5.404;2024-01-15T07:57:07;100217.31;;;0.97;89.41
79453;BME280;68899;52.116;5.404;2024-01-15T07:59:35;100216.47;;;0.95;89.42
79453;BME280;68899;52.116;5.404;2024-01-15T08:02:01;100219.06;;;0.95;88.89
79453;BME280;68899;52.116;5.404;2024-01-15T08:04:28;100212.25;;;0.92;89.21
79453;BME280;68899;52.116;5.404;2024-01-15T08:06:55;100214.78;;;0.94;89.74
79453;BME280;68899;52.116;5.404;2024-01-15T08:09:23;100213.03;;;0.96;89.26
79453;BME280;68899;52.116;5.404;2024-01-15T08:11:50;100206.03;;;0.98;89.62
79453;BME280;68899;52.116;5.404;2024-01-15T08:14:17;100195.63;;;0.99;89.85
79453;BME280;68899;52.116;5.404;2024-01-15T08:16:44;100188.75;;;0.98;89.28
79453;BME280;68899;52.116;5.404;2024-01-15T08:19:11;100194.84;;;0.97;88.76
79453;BME280;68899;52.116;5.404;2024-01-15T08:21:38;100193.09;;;0.98;89.21
79453;BME280;68899;52.116;5.404;2024-01-15T08:24:05;100194.03;;;0.95;89.29
79453;BME280;68899;52.116;5.404;2024-01-15T08:26:32;100203.50;;;0.96;89.52
79453;BME280;68899;52.116;5.404;2024-01-15T08:28:59;100211.22;;;0.98;89.03
79453;BME280;68899;52.116;5.404;2024-01-15T08:31:25;100215.50;;;0.99;89.66
79453;BME280;68899;52.116;5.404;2024-01-15T08:33:52;100220.69;;;0.99;88.80
79453;BME280;68899;52.116;5.404;2024-01-15T08:36:19;100231.88;;;0.99;89.21
79453;BME280;68899;52.116;5.404;2024-01-15T08:38:45;100209.56;;;0.95;89.44
79453;BME280;68899;52.116;5.404;2024-01-15T08:41:13;100207.91;;;0.93;89.43
79453;BME280;68899;52.116;5.404;2024-01-15T08:43:39;100199.38;;;0.91;89.50
79453;BME280;68899;52.116;5.404;2024-01-15T08:46:06;100202.84;;;0.90;89.45
79453;BME280;68899;52.116;5.404;2024-01-15T08:48:33;100206.19;;;0.93;89.48
79453;BME280;68899;52.116;5.404;2024-01-15T08:51:00;100208.56;;;0.99;89.33
79453;BME280;68899;52.116;5.404;2024-01-15T08:53:26;100207.56;;;1.03;90.19
79453;BME280;68899;52.116;5.404;2024-01-15T08:55:53;100200.63;;;1.05;89.26
79453;BME280;68899;52.116;5.404;2024-01-15T08:58:19;100203.22;;;1.04;89.92
79453;BME280;68899;52.116;5.404;2024-01-15T09:00:46;100206.72;;;1.03;89.59
79453;BME280;68899;52.116;5.404;2024-01-15T09:03:12;100218.75;;;1.05;89.60
79453;BME280;68899;52.116;5.404;2024-01-15T09:05:39;100221.38;;;1.04;89.42
79453;BME280;68899;52.116;5.404;2024-01-15T09:08:07;100221.34;;;1.05;90.07
79453;BME280;68899;52.116;5.404;2024-01-15T09:10:33;100222.03;;;1.10;89.91
79453;BME280;68899;52.116;5.404;2024-01-15T09:13:00;100228.81;;;1.15;90.02
79453;BME280;68899;52.116;5.404;2024-01-15T09:15:27;100247.03;;;1.11;89.60
79453;BME280;68899;52.116;5.404;2024-01-15T09:17:54;100235.94;;;1.08;89.80
79453;BME280;68899;52.116;5.404;2024-01-15T09:20:21;100230.00;;;1.04;89.57
79453;BME280;68899;52.116;5.404;2024-01-15T09:22:47;100207.63;;;1.02;89.49
79453;BME280;68899;52.116;5.404;2024-01-15T09:25:14;100210.28;;;1.00;89.88
79453;BME280;68899;52.116;5.404;2024-01-15T09:27:40;100215.41;;;1.02;89.80
79453;BME280;68899;52.116;5.404;2024-01-15T09:30:07;100227.50;;;1.01;89.93
79453;BME280;68899;52.116;5.404;2024-01-15T09:32:35;100217.13;;;1.01;89.01
79453;BME280;68899;52.116;5.404;2024-01-15T09:35:01;100217.97;;;1.02;89.28
79453;BME280;68899;52.116;5.404;2024-01-15T09:37:28;100216.28;;;1.01;89.12
79453;BME280;68899;52.116;5.404;2024-01-15T09:40:13;100219.72;;;1.01;89.38
79453;BME280;68899;52.116;5.404;2024-01-15T09:42:42;100216.16;;;1.05;89.93
79453;BME280;68899;52.116;5.404;2024-01-15T09:45:09;100221.94;;;1.13;89.63
79453;BME280;68899;52.116;5.404;2024-01-15T09:47:36;100228.75;;;1.16;89.61
79453;BME280;68899;52.116;5.404;2024-01-15T09:50:07;100226.22;;;1.15;90.23
79453;BME280;68899;52.116;5.404;2024-01-15T09:52:35;100223.56;;;1.16;89.73
79453;BME280;68899;52.116;5.404;2024-01-15T09:55:03;100215.91;;;1.13;89.44
79453;BME280;68899;52.116;5.404;2024-01-15T09:57:32;100222.06;;;1.09;89.45
79453;BME280;68899;52.116;5.404;2024-01-15T10:00:02;100222.06;;;1.09;90.42
79453;BME280;68899;52.116;5.404;2024-01-15T10:02:31;100229.00;;;1.08;89.72
79453;BME280;68899;52.116;5.404;2024-01-15T10:04:57;100226.47;;;1.07;89.74
79453;BME280;68899;52.116;5.404;2024-01-15T10:07:25;100231.59;;;1.08;89.65
79453;BME280;68899;52.116;5.404;2024-01-15T10:09:52;100234.06;;;1.11;89.58
79453;BME280;68899;52.116;5.404;2024-01-15T10:12:21;100236.06;;;1.30;90.13
79453;BME280;68899;52.116;5.404;2024-01-15T10:14:48;100228.88;;;1.38;90.07
79453;BME280;68899;52.116;5.404;2024-01-15T10:17:16;100221.94;;;1.38;89.54
79453;BME280;68899;52.116;5.404;2024-01-15T10:19:46;100215.88;;;1.39;90.51
79453;BME280;68899;52.116;5.404;2024-01-15T10:22:16;100226.03;;;1.46;90.11
79453;BME280;68899;52.116;5.404;2024-01-15T10:24:44;100228.94;;;1.61;90.57
79453;BME280;68899;52.116;5.404;2024-01-15T10:27:12;100237.44;;;1.66;89.63
79453;BME280;68899;52.116;5.404;2024-01-15T10:29:41;100250.66;;;1.59;90.30
79453;BME280;68899;52.116;5.404;2024-01-15T10:32:08;100242.34;;;1.49;90.03
79453;BME280;68899;52.116;5.404;2024-01-15T10:34:38;100236.56;;;1.41;90.16
79453;BME280;68899;52.116;5.404;2024-01-15T10:37:09;100239.34;;;1.35;89.32
79453;BME280;68899;52.116;5.404;2024-01-15T10:39:36;100241.22;;;1.31;90.16
79453;BME280;68899;52.116;5.404;2024-01-15T10:42:04;100230.84;;;1.31;89.44
79453;BME280;68899;52.116;5.404;2024-01-15T10:44:31;100228.94;;;1.36;89.68
79453;BME280;68899;52.116;5.404;2024-01-15T10:46:57;100225.44;;;1.37;89.91
79453;BME280;68899;52.116;5.404;2024-01-15T10:49:24;100229.63;;;1.41;89.70
79453;BME280;68899;52.116;5.404;2024-01-15T10:51:58;100234.75;;;1.43;89.85
79453;BME280;68899;52.116;5.404;2024-01-15T10:54:26;100229.53;;;1.45;89.79
79453;BME280;68899;52.116;5.404;2024-01-15T10:56:56;100238.84;;;1.50;90.39
79453;BME280;68899;52.116;5.404;2024-01-15T10:59:22;100242.25;;;2.24;91.47
79453;BME280;68899;52.116;5.404;2024-01-15T11:01:52;100241.88;;;2.80;91.11
79453;BME280;68899;52.116;5.404;2024-01-15T11:04:21;100250.06;;;2.69;91.41
79453;BME280;68899;52.116;5.404;2024-01-15T11:06:52;100243.22;;;2.45;90.24
79453;BME280;68899;52.116;5.404;2024-01-15T11:09:21;100252.63;;;2.24;90.11
79453;BME280;68899;52.116;5.404;2024-01-15T11:11:52;100253.09;;;2.12;89.92
79453;BME280;68899;52.116;5.404;2024-01-15T11:17:01;100260.69;;;1.93;90.09
79453;BME280;68899;52.116;5.404;2024-01-15T11:22:10;100265.31;;;1.85;89.79
79453;BME280;68899;52.116;5.404;2024-01-15T11:24:39;100270.63;;;1.80;89.64
79453;BME280;68899;52.116;5.404;2024-01-15T11:27:07;100265.63;;;1.76;89.59
79453;BME280;68899;52.116;5.404;2024-01-15T11:29:36;100271.75;;;1.73;89.44
79453;BME280;68899;52.116;5.404;2024-01-15T11:32:09;100264.13;;;1.68;89.45
79453;BME280;68899;52.116;5.404;2024-01-15T11:34:53;100256.31;;;1.70;90.38
79453;BME280;68899;52.116;5.404;2024-01-15T11:37:21;100256.19;;;1.73;89.86
79453;BME280;68899;52.116;5.404;2024-01-15T11:39:54;100256.25;;;1.72;89.61
79453;BME280;68899;52.116;5.404;2024-01-15T11:42:22;100251.97;;;1.70;89.99
79453;BME280;68899;52.116;5.404;2024-01-15T11:44:49;100261.47;;;1.70;89.30
79453;BME280;68899;52.116;5.404;2024-01-15T11:47:30;100269.16;;;1.73;89.14
79453;BME280;68899;52.116;5.404;2024-01-15T11:50:03;100270.75;;;1.77;89.28
79453;BME280;68899;52.116;5.404;2024-01-15T11:52:35;100273.41;;;1.76;89.23
79453;BME280;68899;52.116;5.404;2024-01-15T11:55:15;100280.41;;;1.72;89.29
79453;BME280;68899;52.116;5.404;2024-01-15T11:57:46;100271.13;;;1.66;89.69
79453;BME280;68899;52.116;5.404;2024-01-15T12:00:16;100266.84;;;1.65;89.38
79453;BME280;68899;52.116;5.404;2024-01-15T12:02:44;100269.44;;;1.65;89.38
79453;BME280;68899;52.116;5.404;2024-01-15T12:05:12;100270.31;;;1.64;90.01
79453;BME280;68899;52.116;5.404;2024-01-15T12:07:40;100272.91;;;1.64;89.17
79453;BME280;68899;52.116;5.404;2024-01-15T12:10:11;100271.16;;;1.65;89.98
79453;BME280;68899;52.116;5.404;2024-01-15T12:12:59;100273.72;;;1.66;89.38
79453;BME280;68899;52.116;5.404;2024-01-15T12:15:30;100275.41;;;1.67;89.27
79453;BME280;68899;52.116;5.404;2024-01-15T12:17:58;100280.28;;;1.77;89.59
79453;BME280;68899;52.116;5.404;2024-01-15T12:20:32;100292.13;;;1.84;89.79
79453;BME280;68899;52.116;5.404;2024-01-15T12:22:58;100302.25;;;1.91;89.89
79453;BME280;68899;52.116;5.404;2024-01-15T12:25:30;100295.34;;;1.90;89.69
79453;BME280;68899;52.116;5.404;2024-01-15T12:27:57;100303.25;;;1.87;90.32
79453;BME280;68899;52.116;5.404;2024-01-15T12:30:26;100305.72;;;1.90;90.32
79453;BME280;68899;52.116;5.404;2024-01-15T12:32:54;100300.38;;;1.95;90.33
79453;BME280;68899;52.116;5.404;2024-01-15T12:35:21;100311.66;;;1.94;89.59
79453;BME280;68899;52.116;5.404;2024-01-15T12:37:47;100318.69;;;1.90;89.42
79453;BME280;68899;52.116;5.404;2024-01-15T12:40:18;100329.25;;;1.86;89.27
79453;BME280;68899;52.116;5.404;2024-01-15T12:42:45;100330.22;;;1.82;89.68
79453;BME280;68899;52.116;5.404;2024-01-15T12:45:13;100330.50;;;1.74;89.77
79453;BME280;68899;52.116;5.404;2024-01-15T12:47:40;100331.69;;;1.64;88.83
79453;BME280;68899;52.116;5.404;2024-01-15T12:50:11;100323.22;;;1.59;89.39
79453;BME280;68899;52.116;5.404;2024-01-15T12:52:45;100328.59;;;1.53;89.21
79453;BME280;68899;52.116;5.404;2024-01-15T12:55:11;100326.13;;;1.50;88.62
79453;BME280;68899;52.116;5.404;2024-01-15T12:57:38;100319.19;;;1.50;89.41
79453;BME280;68899;52.116;5.404;2024-01-15T13:00:05;100319.94;;;1.54;89.59
79453;BME280;68899;52.116;5.404;2024-01-15T13:02:39;100308.59;;;1.56;88.94
79453;BME280;68899;52.116;5.404;2024-01-15T13:05:10;100317.28;;;1.55;89.50
79453;BME280;68899;52.116;5.404;2024-01-15T13:07:39;100324.28;;;1.53;89.29